Time;durP1;ratioP1;P1;durP2;ratioP2;P2;SDS_P1;SDS_P2;PMS_P1;PMS_P2;Temp;Humidity;BMP_temperature;BMP_pressure;BME280_temperature;BME280_humidity;BME280_pressure;Samples;Min_cycle;Max_cycle;Signal;HPM_P1;HPM_P2
2021/04/25 07:51:45;;;;;;;;;6.25;6.00;;;;;14.36;41.67;98733.44;4916797;23;103856;-93
2021/04/25 07:54:11;;;;;;;;;7.00;6.00;;;;;14.37;40.64;98723.38;4801768;29;102657;-95
2021/04/25 07:56:38;;;;;;;;;6.50;5.75;;;;;14.35;40.84;98725.47;4775432;29;102651;-95
2021/04/25 07:59:05;;;;;;;;;8.75;5.75;;;;;14.38;40.93;98723.16;4785929;29;103230;-94
2021/04/25 08:01:32;;;;;;;;;7.50;6.25;;;;;14.34;41.15;98721.06;4787687;29;104117;-94
2021/04/25 08:03:59;;;;;;;;;6.75;6.00;;;;;14.24;40.90;98700.63;4778292;29;102225;-94
2021/04/25 08:06:26;;;;;;;;;6.00;4.75;;;;;14.37;41.17;98707.03;4814087;29;102527;-95
2021/04/25 08:08:53;;;;;;;;;7.25;5.75;;;;;14.37;41.51;98707.03;4772307;29;102685;-94
2021/04/25 08:11:34;;;;;;;;;7.75;6.75;;;;;14.38;40.92;98716.88;4783566;29;104426;-95
2021/04/25 08:14:01;;;;;;;;;5.00;5.00;;;;;14.39;41.16;98705.78;4781811;29;102684;-94
2021/04/25 08:16:28;;;;;;;;;8.25;7.25;;;;;14.38;41.23;98697.81;4764513;29;102777;-95
2021/04/25 08:18:55;;;;;;;;;7.00;6.00;;;;;14.42;41.12;98709.94;4797438;29;102788;-94
2021/04/25 08:21:30;;;;;;;;;6.25;5.50;;;;;14.42;41.63;98709.94;4780029;29;103062;-95
2021/04/25 08:24:10;;;;;;;;;6.00;5.00;;;;;14.40;41.66;98699.28;4769233;29;103765;-94
2021/04/25 08:26:36;;;;;;;;;9.50;7.00;;;;;14.45;41.01;98709.50;4800607;29;102533;-94
2021/04/25 08:29:03;;;;;;;;;7.00;6.00;;;;;14.44;41.12;98710.56;4810895;29;104489;-94
2021/04/25 08:31:30;;;;;;;;;6.50;5.75;;;;;14.43;41.69;98706.16;4793608;29;104019;-95
2021/04/25 08:34:09;;;;;;;;;6.00;5.00;;;;;14.41;41.58;98700.13;4784578;29;102688;-94
2021/04/25 08:36:36;;;;;;;;;6.00;5.00;;;;;14.41;41.59;98702.84;4780812;29;103317;-95
2021/04/25 08:39:04;;;;;;;;;6.00;5.00;;;;;14.44;40.69;98699.66;4774309;29;102750;-95
2021/04/25 08:41:31;;;;;;;;;5.00;5.00;;;;;14.46;41.19;98705.69;4778280;29;104092;-94
2021/04/25 08:44:02;;;;;;;;;6.00;5.50;;;;;14.44;41.73;98691.50;4778128;29;102529;-95
2021/04/25 08:46:29;;;;;;;;;7.00;7.00;;;;;14.48;40.90;98706.31;4780053;29;102226;-94
2021/04/25 08:49:01;;;;;;;;;5.25;4.50;;;;;14.32;41.57;98683.19;4773175;29;102503;-94
2021/04/25 08:51:37;;;;;;;;;4.00;4.00;;;;;14.55;42.94;98710.63;4791388;29;103281;-93
2021/04/25 08:54:29;;;;;;;;;7.50;6.00;;;;;14.59;44.67;98700.16;4779299;29;102353;-94
2021/04/25 08:56:55;;;;;;;;;4.50;4.00;;;;;14.60;45.38;98696.38;4790897;29;102524;-94
2021/04/25 08:59:22;;;;;;;;;8.25;6.00;;;;;14.67;44.97;98702.59;4778341;29;102282;-95
2021/04/25 09:01:49;;;;;;;;;7.50;5.00;;;;;14.68;44.60;98709.69;4779570;29;104022;-94
2021/04/25 09:04:16;;;;;;;;;9.75;8.50;;;;;14.62;41.71;98708.72;4763626;29;103054;-94
2021/04/25 09:07:05;;;;;;;;;9.25;8.00;;;;;14.48;35.91;98709.03;4767203;29;102556;-94
2021/04/25 09:09:57;;;;;;;;;6.00;6.00;;;;;14.40;35.72;98712.06;4796984;29;103143;-95
2021/04/25 09:13:15;;;;;;;;;5.25;5.25;;;;;14.34;33.81;98707.47;4776378;29;102874;-95
2021/04/25 09:16:12;;;;;;;;;5.00;5.00;;;;;14.35;33.55;98709.13;4780431;29;102654;-95
2021/04/25 09:18:39;;;;;;;;;4.25;3.00;;;;;14.25;32.29;98706.91;4786179;29;102748;-96
2021/04/25 09:21:11;;;;;;;;;2.00;2.00;;;;;14.22;32.40;98708.19;4804569;29;103125;-95
2021/04/25 09:23:38;;;;;;;;;4.00;3.25;;;;;14.21;33.48;98701.09;4784418;29;103669;-95
2021/04/25 09:26:09;;;;;;;;;4.00;2.00;;;;;14.13;32.67;98701.38;4762304;29;102347;-95
2021/04/25 09:28:37;;;;;;;;;2.50;2.25;;;;;14.09;31.38;98702.88;4765135;29;102561;-95
2021/04/25 09:31:08;;;;;;;;;3.50;3.00;;;;;14.05;31.51;98693.47;4779512;29;102370;-95
2021/04/25 09:37:29;;;;;;;;;3.00;2.50;;;;;14.00;31.84;98696.03;4790422;29;103654;-96
2021/04/25 09:40:22;;;;;;;;;3.25;3.00;;;;;13.98;32.32;98702.72;4795579;29;102246;-96
2021/04/25 09:43:26;;;;;;;;;3.00;2.50;;;;;13.97;31.25;98706.50;4780169;29;103155;-96
2021/04/25 09:45:57;;;;;;;;;3.50;3.50;;;;;13.93;31.08;98695.22;4790257;29;102807;-96
2021/04/25 09:48:26;;;;;;;;;3.00;3.00;;;;;13.87;32.15;98701.53;4787161;29;103002;-96
2021/04/25 09:51:17;;;;;;;;;3.00;3.00;;;;;13.89;31.50;98699.44;4776172;29;104179;-96
2021/04/25 09:53:50;;;;;;;;;4.50;3.00;;;;;13.91;31.94;98702.78;4796687;29;102527;-96
2021/04/25 09:56:24;;;;;;;;;4.00;3.00;;;;;13.92;31.39;98690.84;4792962;29;104278;-96
2021/04/25 09:59:24;;;;;;;;;3.00;2.00;;;;;14.09;33.90;98681.13;4753221;29;102867;-94
2021/04/25 10:02:09;;;;;;;;;2.25;2.00;;;;;14.24;37.51;98687.03;4794875;29;102046;-93
2021/04/25 10:04:37;;;;;;;;;4.00;4.00;;;;;14.37;40.65;98690.72;4775283;29;102213;-94
2021/04/25 10:07:22;;;;;;;;;4.25;3.75;;;;;14.47;41.21;98696.50;4775650;29;104052;-94
2021/04/25 10:10:15;;;;;;;;;6.25;5.00;;;;;14.57;41.91;98696.81;4787854;29;103756;-93
2021/04/25 10:12:45;;;;;;;;;6.50;4.75;;;;;14.60;42.09;98685.47;4793170;29;102686;-93
2021/04/25 10:15:13;;;;;;;;;4.00;4.00;;;;;14.65;38.43;98694.63;4792810;29;102602;-93
2021/04/25 10:17:45;;;;;;;;;6.00;5.00;;;;;14.58;36.43;98698.50;4796192;29;103467;-94
2021/04/25 10:20:35;;;;;;;;;6.25;4.75;;;;;14.51;34.54;98709.44;4778140;29;102745;-94
2021/04/25 10:23:02;;;;;;;;;5.75;4.25;;;;;14.26;33.28;98694.97;4795105;29;103704;-95
2021/04/25 10:25:36;;;;;;;;;6.00;5.00;;;;;14.08;33.34;98697.63;4792447;29;102727;-94
2021/04/25 10:28:05;;;;;;;;;4.00;4.00;;;;;14.13;33.61;98706.81;4763455;29;103003;-95
2021/04/25 10:30:36;;;;;;;;;4.00;3.75;;;;;14.18;33.84;98692.53;4778837;29;103468;-94
2021/04/25 10:33:03;;;;;;;;;4.50;3.50;;;;;14.20;33.49;98702.13;4760534;29;102484;-95
2021/04/25 10:36:01;;;;;;;;;3.50;3.00;;;;;14.23;34.03;98714.44;4766385;29;102866;-96
2021/04/25 10:38:38;;;;;;;;;3.25;3.00;;;;;14.20;34.99;98704.84;4800792;29;104026;-96
2021/04/25 10:41:25;;;;;;;;;2.00;2.00;;;;;14.30;33.41;98712.53;4803963;29;102564;-94
2021/04/25 10:44:03;;;;;;;;;3.00;3.00;;;;;14.24;33.73;98699.78;4795369;29;102080;-96
2021/04/25 10:46:55;;;;;;;;;3.00;3.00;;;;;14.20;32.65;98701.31;4798911;29;103584;-96
2021/04/25 10:49:32;;;;;;;;;2.25;2.25;;;;;14.21;32.68;98706.53;4801697;29;104446;-96
2021/04/25 10:52:27;;;;;;;;;3.75;3.00;;;;;14.30;33.86;98698.91;4813697;29;103216;-94
2021/04/25 10:55:16;;;;;;;;;2.50;1.75;;;;;14.34;33.26;98702.84;4814617;29;102172;-95
2021/04/25 10:57:52;;;;;;;;;3.00;2.75;;;;;14.32;33.60;98713.94;4815903;29;103767;-96
2021/04/25 11:03:41;;;;;;;;;3.75;3.50;;;;;14.37;33.58;98701.59;4813466;29;102422;-95
2021/04/25 11:06:23;;;;;;;;;3.00;2.50;;;;;14.40;33.06;98695.72;4810060;29;104120;-94
2021/04/25 11:08:50;;;;;;;;;2.75;2.75;;;;;14.49;33.14;98706.13;4817791;29;102940;-95
2021/04/25 11:11:31;;;;;;;;;2.00;2.00;;;;;14.45;33.21;98710.34;4785398;29;104045;-95
2021/04/25 11:13:58;;;;;;;;;3.75;3.25;;;;;14.46;33.18;98705.69;4816576;29;102293;-95
2021/04/25 11:16:49;;;;;;;;;3.00;2.75;;;;;14.45;32.94;98717.66;4781288;29;102260;-95
2021/04/25 11:19:16;;;;;;;;;1.00;1.00;;;;;14.43;32.56;98701.56;4809550;29;102339;-95
2021/04/25 11:22:14;;;;;;;;;2.00;2.00;;;;;14.38;31.97;98725.03;4781868;29;104246;-96
2021/04/25 11:24:41;;;;;;;;;3.00;2.00;;;;;14.30;31.67;98717.97;4796771;29;103698;-95
2021/04/25 11:27:08;;;;;;;;;1.75;1.75;;;;;14.27;31.72;98711.06;4816452;29;102406;-96
2021/04/25 11:29:38;;;;;;;;;1.00;1.00;;;;;14.30;32.48;98709.81;4820561;29;103712;-95
2021/04/25 11:32:05;;;;;;;;;1.75;1.50;;;;;14.32;32.23;98719.38;4816037;29;104011;-95
2021/04/25 11:34:32;;;;;;;;;1.75;1.75;;;;;14.34;32.05;98702.03;4814563;29;102343;-96
2021/04/25 11:37:33;;;;;;;;;1.00;1.00;;;;;14.32;32.27;98715.03;4816671;29;103170;-96
2021/04/25 11:40:02;;;;;;;;;1.25;1.00;;;;;14.31;31.63;98697.88;4801383;29;102221;-95
2021/04/25 11:42:39;;;;;;;;;2.00;2.00;;;;;14.28;30.90;98692.84;4812304;29;104478;-95
2021/04/25 11:45:26;;;;;;;;;1.25;1.00;;;;;14.26;31.44;98705.88;4815953;29;102636;-95
2021/04/25 11:47:54;;;;;;;;;1.00;1.00;;;;;14.24;31.40;98708.78;4813610;29;102412;-95
2021/04/25 11:50:30;;;;;;;;;2.00;2.00;;;;;14.28;30.81;98712.72;4813457;29;102630;-95
2021/04/25 11:52:57;;;;;;;;;1.00;1.00;;;;;14.17;30.49;98715.34;4813357;29;104260;-95
2021/04/25 11:55:23;;;;;;;;;2.00;2.00;;;;;14.20;30.54;98709.47;4812869;29;103114;-95
2021/04/25 11:57:51;;;;;;;;;2.25;2.00;;;;;14.18;30.43;98708.88;4800706;29;102236;-94
2021/04/25 12:00:25;;;;;;;;;1.25;1.25;;;;;14.20;30.51;98718.44;4785468;29;102774;-96
2021/04/25 12:03:02;;;;;;;;;2.25;1.25;;;;;14.17;30.33;98720.78;4797540;29;104977;-95
2021/04/25 12:05:29;;;;;;;;;1.00;1.00;;;;;14.20;30.50;98729.34;4784870;29;102705;-96
2021/04/25 12:07:58;;;;;;;;;2.50;1.00;;;;;14.21;31.00;98714.69;4817389;29;102464;-94
2021/04/25 12:10:43;;;;;;;;;1.75;1.75;;;;;14.27;30.50;98719.22;4814153;29;102201;-94
2021/04/25 12:13:19;;;;;;;;;2.00;2.00;;;;;14.36;30.85;98722.56;4795279;29;104133;-95
2021/04/25 12:15:52;;;;;;;;;3.00;2.25;;;;;14.15;28.48;98731.03;4814382;29;102086;-95
2021/04/25 12:18:36;;;;;;;;;4.00;3.00;;;;;13.81;28.18;98708.72;4813449;29;103234;-95
2021/04/25 12:21:07;;;;;;;;;2.75;2.50;;;;;13.71;28.95;98724.66;4798317;29;102225;-94
2021/04/25 12:23:35;;;;;;;;;1.00;1.00;;;;;13.65;28.44;98720.06;4767302;29;104976;-95
2021/04/25 12:26:32;;;;;;;;;3.00;2.50;;;;;13.66;28.81;98734.50;4783810;29;102171;-94
2021/04/25 12:28:59;;;;;;;;;3.00;3.00;;;;;13.53;28.61;98731.84;4795298;29;103746;-94
2021/04/25 12:31:27;;;;;;;;;2.75;2.50;;;;;13.47;29.39;98728.13;4790414;29;102223;-94
2021/04/25 12:33:56;;;;;;;;;2.25;2.25;;;;;13.37;28.13;98722.34;4784117;29;103172;-94
2021/04/25 12:36:24;;;;;;;;;2.50;2.00;;;;;13.32;28.93;98720.25;4777878;29;103091;-95
2021/04/25 12:38:56;;;;;;;;;3.00;2.00;;;;;13.19;29.07;98725.72;4781956;29;102415;-96
2021/04/25 12:41:24;;;;;;;;;1.00;1.00;;;;;13.05;28.91;98729.53;4767427;29;102362;-95
2021/04/25 12:43:54;;;;;;;;;2.00;2.00;;;;;13.05;28.87;98717.84;4779156;29;104099;-94
2021/04/25 12:47:00;;;;;;;;;3.00;2.00;;;;;12.84;29.49;98735.19;4783080;29;102120;-94
2021/04/25 12:49:49;;;;;;;;;3.50;2.00;;;;;12.76;30.06;98725.41;4809025;29;102444;-94
2021/04/25 12:52:15;;;;;;;;;2.50;2.50;;;;;12.85;30.24;98728.72;4794195;29;103659;-95
2021/04/25 12:54:43;;;;;;;;;3.25;2.50;;;;;12.92;29.55;98722.22;4777430;29;104064;-94
2021/04/25 12:57:10;;;;;;;;;2.00;2.00;;;;;12.96;30.46;98731.63;4792778;29;102631;-95
2021/04/25 13:00:01;;;;;;;;;3.00;2.50;;;;;13.14;30.21;98727.44;4762071;29;102453;-94
2021/04/25 13:02:32;;;;;;;;;1.00;1.00;;;;;13.38;31.17;98716.66;4792086;29;102716;-94
2021/04/25 13:05:04;;;;;;;;;1.00;0.00;;;;;13.64;33.07;98714.88;4794230;29;104150;-94
2021/04/25 13:07:35;;;;;;;;;1.00;1.00;;;;;13.89;33.87;98726.63;4776289;29;102536;-94
2021/04/25 13:10:11;;;;;;;;;1.00;1.00;;;;;14.05;33.56;98726.09;4780429;29;102670;-94
2021/04/25 13:12:48;;;;;;;;;1.00;1.00;;;;;14.16;34.17;98717.22;4796214;29;102246;-94
2021/04/25 13:15:34;;;;;;;;;0.50;0.50;;;;;14.25;34.76;98721.34;4792626;29;104089;-94
2021/04/25 13:18:13;;;;;;;;;0.00;0.00;;;;;14.35;33.78;98726.28;4794302;29;102297;-94
2021/04/25 13:20:45;;;;;;;;;0.25;0.25;;;;;14.40;34.40;98729.22;4777502;29;102493;-95
2021/04/25 13:23:14;;;;;;;;;0.25;0.25;;;;;14.49;33.94;98730.59;4781551;29;102617;-95
2021/04/25 13:25:44;;;;;;;;;0.75;0.75;;;;;14.53;33.99;98728.25;4764500;29;103338;-95
2021/04/25 13:28:13;;;;;;;;;0.00;0.00;;;;;14.57;34.25;98726.75;4742075;29;102316;-95
2021/04/25 13:30:42;;;;;;;;;1.00;1.00;;;;;14.61;35.07;98725.25;4760419;29;102602;-95
2021/04/25 13:33:13;;;;;;;;;0.00;0.00;;;;;14.62;35.03;98718.75;4784718;29;102164;-94
2021/04/25 13:35:42;;;;;;;;;2.00;2.00;;;;;14.64;33.86;98717.47;4774443;29;103458;-94
2021/04/25 13:38:09;;;;;;;;;1.00;1.00;;;;;14.68;33.51;98728.72;4763055;29;102676;-94
2021/04/25 13:40:36;;;;;;;;;1.00;1.00;;;;;14.69;33.89;98719.50;4776935;29;102438;-95
2021/04/25 13:43:03;;;;;;;;;0.50;0.50;;;;;14.68;34.12;98715.13;4782695;29;102685;-95
2021/04/25 13:45:29;;;;;;;;;2.00;1.25;;;;;14.70;33.38;98718.47;4761246;29;104213;-95
2021/04/25 13:47:56;;;;;;;;;1.00;0.25;;;;;14.69;33.91;98711.34;4758486;29;103429;-96
2021/04/25 13:50:23;;;;;;;;;2.00;1.00;;;;;14.73;34.45;98712.56;4760793;29;102608;-94
2021/04/25 13:52:50;;;;;;;;;0.75;0.75;;;;;14.58;29.79;98712.09;4759827;29;102741;-94
2021/04/25 13:55:17;;;;;;;;;1.00;1.00;;;;;14.28;28.55;98720.88;4746938;29;103960;-94
2021/04/25 13:57:44;;;;;;;;;2.00;2.00;;;;;14.14;29.60;98708.44;4768142;29;102248;-96
2021/04/25 14:00:15;;;;;;;;;1.25;1.25;;;;;14.21;29.79;98714.69;4773515;29;102512;-95
2021/04/25 14:02:42;;;;;;;;;2.00;1.50;;;;;14.19;30.21;98716.78;4764749;29;102500;-94
2021/04/25 14:05:09;;;;;;;;;1.75;1.00;;;;;14.28;30.40;98715.44;4760689;29;104467;-94
2021/04/25 14:07:36;;;;;;;;;1.00;1.00;;;;;14.34;29.95;98694.69;4763700;29;102542;-95
2021/04/25 14:10:07;;;;;;;;;2.00;1.00;;;;;14.41;30.58;98708.28;4778463;29;102169;-95
2021/04/25 14:12:54;;;;;;;;;1.00;1.00;;;;;14.51;31.14;98716.75;4761449;29;102180;-94
2021/04/25 14:15:22;;;;;;;;;1.25;1.25;;;;;14.54;31.25;98719.03;4776120;29;103374;-94
2021/04/25 14:17:48;;;;;;;;;1.50;1.00;;;;;14.54;31.40;98702.72;4779797;29;102338;-94
2021/04/25 14:20:16;;;;;;;;;0.25;0.25;;;;;14.56;31.42;98704.16;4763228;29;102227;-94
2021/04/25 14:22:43;;;;;;;;;1.25;0.75;;;;;14.56;31.12;98708.75;4761881;29;104231;-94
2021/04/25 14:25:14;;;;;;;;;1.25;1.00;;;;;14.56;31.54;98700.59;4745929;29;103111;-94
2021/04/25 14:27:46;;;;;;;;;1.00;1.00;;;;;14.58;31.90;98710.22;4761595;29;102946;-94
2021/04/25 14:30:14;;;;;;;;;0.25;0.25;;;;;14.63;31.37;98709.53;4762358;29;103216;-94
2021/04/25 14:32:42;;;;;;;;;0.50;0.00;;;;;14.69;31.59;98705.91;4763170;29;102769;-96
2021/04/25 14:35:10;;;;;;;;;1.00;1.00;;;;;14.68;32.98;98710.50;4762369;29;104253;-94
2021/04/25 14:37:37;;;;;;;;;1.00;1.00;;;;;14.69;32.34;98714.91;4776220;29;102433;-96
2021/04/25 14:40:08;;;;;;;;;0.50;0.25;;;;;14.68;31.96;98715.13;4758964;29;103443;-95
2021/04/25 14:43:01;;;;;;;;;0.75;0.75;;;;;14.71;32.29;98714.69;4759517;29;103693;-95
2021/04/25 14:45:28;;;;;;;;;0.50;0.50;;;;;14.66;32.75;98720.81;4776151;29;104016;-96
2021/04/25 14:48:26;;;;;;;;;0.00;0.00;;;;;14.76;32.70;98723.03;4774482;29;102817;-95
2021/04/25 14:50:53;;;;;;;;;0.75;0.25;;;;;14.76;33.10;98706.69;4771068;29;102981;-96
2021/04/25 14:53:19;;;;;;;;;1.00;1.00;;;;;14.81;32.77;98717.72;4796075;29;102523;-95
2021/04/25 14:55:55;;;;;;;;;1.00;0.00;;;;;14.83;32.53;98712.88;4785834;29;103976;-96
2021/04/25 14:58:22;;;;;;;;;0.00;0.00;;;;;14.85;32.54;98718.94;4767238;29;103094;-96
2021/04/25 15:00:52;;;;;;;;;1.75;0.50;;;;;14.88;32.73;98731.25;4779461;29;102477;-95
2021/04/25 15:03:26;;;;;;;;;0.25;0.00;;;;;14.91;32.37;98731.63;4793088;29;102692;-95
2021/04/25 15:06:02;;;;;;;;;0.75;0.00;;;;;14.91;32.19;98726.19;4776976;29;103045;-95
2021/04/25 15:08:37;;;;;;;;;0.00;0.00;;;;;14.93;32.82;98740.41;4778347;29;102255;-96
2021/04/25 15:11:11;;;;;;;;;0.00;0.00;;;;;14.92;32.07;98736.03;4779044;29;102610;-95
2021/04/25 15:13:45;;;;;;;;;0.00;0.00;;;;;14.93;33.02;98723.25;4766541;29;102386;-95
2021/04/25 15:16:16;;;;;;;;;1.00;1.00;;;;;14.95;33.18;98732.03;4780162;29;103312;-96
2021/04/25 15:18:48;;;;;;;;;0.00;0.00;;;;;14.93;32.51;98717.81;4776209;29;102632;-95
2021/04/25 15:21:22;;;;;;;;;0.50;0.50;;;;;14.92;33.09;98719.69;4794345;29;102666;-95
2021/04/25 15:23:50;;;;;;;;;1.00;1.00;;;;;14.96;32.64;98723.63;4784359;29;102523;-96
2021/04/25 15:26:22;;;;;;;;;0.00;0.00;;;;;14.97;32.50;98722.56;4781625;29;103898;-95
2021/04/25 15:28:54;;;;;;;;;0.50;0.00;;;;;14.96;32.61;98728.22;4779713;29;102459;-95
2021/04/25 15:32:10;;;;;;;;;0.50;0.00;;;;;15.05;32.33;98727.72;4767061;29;102278;-96
2021/04/25 15:34:45;;;;;;;;;1.00;1.00;;;;;15.05;32.48;98727.72;4797158;29;102881;-95
2021/04/25 15:37:19;;;;;;;;;1.00;0.00;;;;;14.90;28.05;98719.09;4781806;29;104203;-96
2021/04/25 15:39:55;;;;;;;;;0.25;0.25;;;;;14.67;29.85;98714.31;4782000;29;103771;-95
2021/04/25 15:42:25;;;;;;;;;1.00;1.00;;;;;14.67;30.39;98708.88;4768177;29;102344;-96
2021/04/25 15:44:55;;;;;;;;;0.50;0.00;;;;;14.80;30.26;98709.78;4782759;29;103917;-95
2021/04/25 15:47:22;;;;;;;;;0.00;0.00;;;;;14.84;30.64;98709.09;4758933;29;103323;-96
2021/04/25 15:49:48;;;;;;;;;0.25;0.25;;;;;14.92;31.04;98716.97;4769213;29;102560;-96
2021/04/25 15:52:18;;;;;;;;;0.75;0.00;;;;;14.96;31.33;98711.91;4770224;29;102551;-96
2021/04/25 15:54:47;;;;;;;;;2.00;1.00;;;;;15.00;30.92;98708.50;4780627;29;102517;-96
2021/04/25 15:57:13;;;;;;;;;1.00;1.00;;;;;15.04;31.72;98717.88;4776786;29;105394;-96
2021/04/25 15:59:41;;;;;;;;;0.50;0.00;;;;;15.01;29.20;98709.34;4778723;29;102228;-96
2021/04/25 16:02:08;;;;;;;;;1.00;0.00;;;;;14.93;29.77;98698.75;4778816;29;102719;-96
2021/04/25 16:04:35;;;;;;;;;1.00;0.50;;;;;14.94;30.63;98717.59;4768938;29;102706;-96
2021/04/25 16:07:02;;;;;;;;;0.00;0.00;;;;;14.99;30.69;98709.59;4773980;29;104296;-96
2021/04/25 16:09:29;;;;;;;;;0.00;0.00;;;;;15.03;30.37;98718.97;4779125;29;102304;-95
2021/04/25 16:11:56;;;;;;;;;0.75;0.75;;;;;15.00;30.11;98730.28;4767757;29;102074;-96
2021/04/25 16:14:23;;;;;;;;;1.00;1.00;;;;;15.01;30.59;98723.78;4779821;29;104723;-95
2021/04/25 16:16:50;;;;;;;;;0.00;0.00;;;;;15.03;31.04;98735.28;4770727;29;107226;-94
2021/04/25 16:19:40;;;;;;;;;0.50;0.50;;;;;15.04;31.34;98736.94;4780337;29;102602;-95
2021/04/25 16:22:08;;;;;;;;;0.75;0.00;;;;;15.06;31.84;98739.44;4792893;29;102229;-96
2021/04/25 16:24:35;;;;;;;;;0.00;0.00;;;;;15.02;31.82;98741.78;4793953;29;102836;-96
2021/04/25 16:27:04;;;;;;;;;1.00;1.00;;;;;15.01;32.12;98731.94;4779918;29;104078;-96
2021/04/25 16:29:35;;;;;;;;;1.00;0.00;;;;;15.06;32.01;98731.28;4782323;29;102511;-96
2021/04/25 16:32:08;;;;;;;;;0.25;0.00;;;;;14.88;27.46;98737.53;4766938;29;102184;-96
2021/04/25 16:34:42;;;;;;;;;1.00;1.00;;;;;14.63;25.09;98734.03;4781772;29;102627;-96
2021/04/25 16:37:15;;;;;;;;;0.00;0.00;;;;;14.43;26.78;98744.25;4766024;29;104227;-95
2021/04/25 16:40:01;;;;;;;;;0.50;0.50;;;;;14.40;26.86;98742.81;4792744;29;102536;-96
2021/04/25 16:42:34;;;;;;;;;0.75;0.00;;;;;14.44;26.98;98743.19;4791330;29;102228;-96
2021/04/25 16:45:30;;;;;;;;;1.75;0.75;;;;;14.57;27.31;98743.91;4798366;29;102517;-96
2021/04/25 16:48:27;;;;;;;;;0.00;0.00;;;;;14.64;27.06;98743.84;4793121;29;104484;-96
2021/04/25 16:51:02;;;;;;;;;1.00;0.00;;;;;14.68;27.38;98758.66;4802806;29;102675;-96
2021/04/25 16:53:36;;;;;;;;;0.00;0.00;;;;;14.71;28.06;98761.78;4780875;29;102141;-95
2021/04/25 16:56:09;;;;;;;;;0.00;0.00;;;;;14.72;28.37;98758.00;4777290;29;102651;-96
2021/04/25 16:59:00;;;;;;;;;0.50;0.00;;;;;14.73;28.34;98750.66;4790424;29;102502;-95
2021/04/25 17:01:27;;;;;;;;;0.00;0.00;;;;;14.71;28.56;98758.25;4764868;29;102496;-96
2021/04/25 17:03:54;;;;;;;;;1.00;0.00;;;;;14.71;28.89;98753.63;4778155;29;103268;-95
2021/04/25 17:06:45;;;;;;;;;0.00;0.00;;;;;14.75;29.28;98767.63;4782158;29;102568;-96
2021/04/25 17:09:12;;;;;;;;;0.00;0.00;;;;;14.74;29.79;98763.22;4797747;29;104055;-95
2021/04/25 17:11:39;;;;;;;;;0.00;0.00;;;;;14.73;30.17;98765.09;4792844;29;102677;-96
2021/04/25 17:14:30;;;;;;;;;0.00;0.00;;;;;14.76;30.35;98785.63;4776115;29;103673;-95
2021/04/25 17:16:57;;;;;;;;;1.00;0.00;;;;;14.77;30.31;98779.09;4797295;29;102656;-95
2021/04/25 17:19:24;;;;;;;;;0.00;0.00;;;;;14.75;30.22;98786.66;4789893;29;103227;-96
2021/04/25 17:21:51;;;;;;;;;0.00;0.00;;;;;14.72;30.37;98792.56;4763472;29;102541;-95
2021/04/25 17:24:19;;;;;;;;;0.00;0.00;;;;;14.73;30.93;98795.06;4767366;29;102182;-96
2021/04/25 17:26:48;;;;;;;;;0.00;0.00;;;;;14.71;30.63;98790.91;4765185;29;102839;-95
2021/04/25 17:29:15;;;;;;;;;0.00;0.00;;;;;14.71;30.89;98793.63;4756614;29;104019;-95
2021/04/25 17:31:53;;;;;;;;;1.00;0.25;;;;;14.68;30.91;98785.88;4773471;29;102342;-95
2021/04/25 17:34:23;;;;;;;;;0.00;0.00;;;;;14.69;30.81;98782.09;4790236;29;102818;-94
2021/04/25 17:37:10;;;;;;;;;0.00;0.00;;;;;14.71;31.78;98799.91;4764965;29;102305;-95
2021/04/25 17:39:59;;;;;;;;;0.00;0.00;;;;;14.70;31.33;98794.66;4793418;29;103061;-95
2021/04/25 17:42:25;;;;;;;;;0.00;0.00;;;;;14.63;31.59;98793.91;4789014;29;103256;-95
2021/04/25 17:44:52;;;;;;;;;0.00;0.00;;;;;14.63;31.33;98793.91;4776110;29;102225;-96
2021/04/25 17:47:34;;;;;;;;;0.00;0.00;;;;;14.65;31.09;98799.94;4780210;29;102405;-95
2021/04/25 17:50:04;;;;;;;;;0.00;0.00;;;;;14.62;31.33;98792.22;4790808;29;103016;-96
2021/04/25 17:52:30;;;;;;;;;1.00;0.00;;;;;14.62;31.56;98797.69;4766346;29;102542;-95
2021/04/25 17:54:58;;;;;;;;;0.25;0.25;;;;;14.59;31.75;98811.75;4793003;29;102657;-96
2021/04/25 17:57:25;;;;;;;;;1.00;1.00;;;;;14.63;31.95;98799.34;4779463;29;103903;-96
2021/04/25 17:59:56;;;;;;;;;1.00;0.00;;;;;14.86;35.34;98810.44;4769421;29;103005;-96
2021/04/25 18:02:23;;;;;;;;;1.00;1.00;;;;;15.06;35.62;98819.25;4779790;29;102178;-94
2021/04/25 18:04:51;;;;;;;;;1.00;1.00;;;;;15.33;36.08;98821.69;4814252;29;102899;-96
2021/04/25 18:07:18;;;;;;;;;4.25;4.00;;;;;15.51;38.18;98829.91;4811834;29;102454;-96
2021/04/25 18:09:49;;;;;;;;;5.50;4.50;;;;;15.60;37.66;98826.66;4796909;29;103505;-96
2021/04/25 18:12:41;;;;;;;;;5.00;4.25;;;;;15.78;37.42;98834.00;4798806;29;102341;-96
2021/04/25 18:15:12;;;;;;;;;3.50;2.25;;;;;15.82;38.13;98820.72;4800061;29;102580;-96
2021/04/25 18:18:08;;;;;;;;;4.00;3.00;;;;;15.98;37.22;98826.41;4829804;29;101925;-96
2021/04/25 18:20:43;;;;;;;;;4.25;3.00;;;;;16.03;37.90;98828.41;4806517;29;102203;-96
2021/04/25 18:23:36;;;;;;;;;4.75;4.75;;;;;16.26;38.11;98839.44;4806505;29;102081;-96
